createdAt,value
2022-10-19T00:01:28.854Z,14.05
2022-10-19T00:06:35.275Z,14.03
2022-10-19T00:11:40.763Z,14.12
2022-10-19T00:16:43.018Z,14.11
2022-10-19T00:21:45.291Z,14.00
2022-10-19T00:26:46.838Z,14.09
2022-10-19T00:31:50.246Z,14.15
2022-10-19T00:36:51.914Z,14.12
2022-10-19T00:41:53.359Z,14.01
2022-10-19T00:46:59.170Z,14.14
2022-10-19T00:52:07.932Z,14.13
2022-10-19T00:57:10.477Z,14.18
2022-10-19T01:02:12.306Z,14.16
2022-10-19T01:07:13.853Z,14.10
2022-10-19T01:12:30.788Z,14.08
2022-10-19T01:18:15.531Z,14.07
2022-10-19T01:23:19.894Z,14.06
2022-10-19T01:28:45.052Z,14.09
2022-10-19T01:39:22.606Z,14.14
2022-10-19T01:44:44.586Z,14.16
2022-10-19T01:49:56.893Z,14.13
2022-10-19T01:55:01.898Z,14.07
2022-10-19T02:00:06.081Z,14.06
2022-10-19T02:05:09.105Z,14.02
2022-10-19T02:10:10.941Z,13.99
2022-10-19T02:15:17.129Z,13.98
2022-10-19T02:20:20.089Z,13.86
2022-10-19T02:25:23.001Z,13.88
2022-10-19T02:30:24.694Z,13.88
2022-10-19T02:35:26.411Z,13.77
2022-10-19T02:40:33.054Z,13.76
2022-10-19T02:45:43.258Z,13.72
2022-10-19T02:50:45.602Z,13.63
2022-10-19T02:55:48.950Z,13.64
2022-10-19T03:00:50.389Z,13.52
2022-10-19T03:05:51.834Z,13.48
2022-10-19T03:10:53.298Z,13.46
2022-10-19T03:15:54.694Z,13.48
2022-10-19T03:21:10.718Z,13.49
2022-10-19T03:26:15.993Z,13.45
2022-10-19T03:31:17.445Z,13.37
2022-10-19T03:36:28.454Z,13.35
2022-10-19T03:41:33.275Z,13.44
2022-10-19T03:46:35.620Z,13.45
2022-10-19T03:51:37.214Z,13.46
2022-10-19T03:56:38.754Z,13.46
2022-10-19T04:01:43.219Z,13.36
2022-10-19T04:06:47.607Z,13.30
2022-10-19T04:11:49.638Z,13.35
2022-10-19T04:16:51.160Z,13.34
2022-10-19T04:21:52.562Z,13.38
2022-10-19T04:26:55.827Z,13.20
2022-10-19T04:31:58.122Z,13.22
2022-10-19T04:36:59.690Z,13.28
2022-10-19T04:42:01.163Z,13.14
2022-10-19T04:47:02.738Z,13.18
2022-10-19T04:52:04.293Z,13.19
2022-10-19T04:57:05.726Z,13.17
2022-10-19T05:02:07.296Z,13.16
2022-10-19T05:07:08.765Z,13.11
2022-10-19T05:12:10.190Z,13.03
2022-10-19T05:17:11.611Z,13.02
2022-10-19T05:22:13.023Z,12.99
2022-10-19T05:27:14.655Z,13.02
2022-10-19T05:32:16.087Z,13.11
2022-10-19T05:37:17.497Z,13.10
2022-10-19T05:42:18.957Z,13.08
2022-10-19T05:47:20.405Z,13.02
2022-10-19T05:52:21.921Z,12.86
2022-10-19T05:57:23.373Z,12.89
2022-10-19T06:02:24.833Z,12.83
2022-10-19T06:07:26.279Z,12.85
2022-10-19T06:12:27.689Z,12.77
2022-10-19T06:17:29.180Z,12.76
2022-10-19T06:22:30.651Z,12.76
2022-10-19T06:27:32.528Z,12.80
2022-10-19T06:32:34.221Z,12.79
2022-10-19T06:37:35.780Z,12.92
2022-10-19T06:42:37.487Z,12.93
2022-10-19T06:47:39.129Z,12.91
2022-10-19T06:52:40.842Z,12.76
2022-10-19T06:57:42.297Z,12.75
2022-10-19T07:02:44.217Z,12.86
2022-10-19T07:07:45.738Z,12.80
2022-10-19T07:12:47.208Z,12.88
2022-10-19T07:17:48.695Z,12.88
2022-10-19T07:22:50.089Z,12.86
2022-10-19T07:27:51.657Z,13.02
2022-10-19T07:32:53.060Z,12.93
2022-10-19T07:37:54.507Z,12.89
2022-10-19T07:42:56.077Z,12.93
2022-10-19T07:47:58.537Z,12.96
2022-10-19T07:53:00.038Z,12.96
2022-10-19T07:58:01.446Z,12.78
2022-10-19T08:08:24.653Z,13.06
2022-10-19T08:13:26.098Z,13.09
2022-10-19T08:18:27.557Z,12.99
2022-10-19T08:23:29.253Z,13.07
2022-10-19T08:28:30.812Z,13.07
2022-10-19T08:33:32.229Z,13.13
2022-10-19T08:38:35.453Z,13.18
2022-10-19T08:43:54.465Z,13.20
2022-10-19T08:48:56.463Z,13.20
2022-10-19T08:54:02.439Z,13.03
2022-10-19T08:59:40.770Z,13.13
2022-10-19T09:04:48.368Z,13.32
2022-10-19T09:10:04.855Z,13.29
2022-10-19T09:15:11.305Z,13.43
2022-10-19T09:20:19.614Z,13.08
2022-10-19T09:25:23.254Z,13.06
2022-10-19T09:30:24.719Z,13.20
2022-10-19T09:35:35.981Z,13.64
2022-10-19T09:40:37.431Z,13.31
2022-10-19T09:45:54.046Z,13.45
2022-10-19T09:50:58.857Z,13.58
2022-10-19T09:56:05.678Z,13.85
2022-10-19T10:01:07.113Z,13.92
2022-10-19T10:06:13.805Z,13.93
2022-10-19T10:11:24.017Z,13.97
2022-10-19T10:16:29.714Z,14.02
2022-10-19T10:21:50.022Z,14.12
2022-10-19T10:27:00.529Z,14.23
2022-10-19T10:32:20.232Z,14.00
2022-10-19T10:37:28.117Z,14.03
2022-10-19T10:42:40.905Z,14.06
2022-10-19T10:47:43.553Z,14.18
2022-10-19T10:53:04.488Z,14.14
2022-10-19T10:58:18.275Z,14.16
2022-10-19T11:03:26.646Z,14.21
2022-10-19T11:08:47.101Z,14.38
2022-10-19T11:13:58.855Z,14.59
2022-10-19T11:19:20.542Z,14.50
2022-10-19T11:24:48.692Z,14.66
2022-10-19T11:30:07.181Z,14.83
2022-10-19T11:35:30.788Z,14.81
2022-10-19T11:40:49.611Z,14.58
2022-10-19T11:46:23.536Z,14.76
2022-10-19T11:51:40.540Z,14.76
2022-10-19T11:57:11.406Z,14.67
2022-10-19T12:02:24.709Z,14.91
2022-10-19T12:07:39.648Z,14.99
2022-10-19T12:12:47.897Z,15.01
2022-10-19T12:17:52.557Z,15.09
2022-10-19T12:22:54.418Z,15.21
2022-10-19T12:27:57.127Z,15.28
2022-10-19T12:33:03.392Z,15.36
2022-10-19T12:38:16.331Z,15.32
2022-10-19T12:43:31.057Z,14.97
2022-10-19T12:48:32.549Z,15.40
2022-10-19T12:53:49.057Z,15.49
2022-10-19T12:58:57.538Z,15.53
2022-10-19T13:04:10.454Z,15.39
2022-10-19T13:09:39.891Z,15.66
2022-10-19T13:14:41.348Z,15.74
2022-10-19T13:19:42.908Z,15.69
2022-10-19T13:25:16.832Z,15.65
2022-10-19T13:30:36.649Z,15.69
2022-10-19T13:35:39.049Z,15.62
2022-10-19T13:40:49.688Z,15.62
2022-10-19T13:46:00.271Z,15.60
2022-10-19T13:51:19.414Z,15.72
2022-10-19T13:56:31.925Z,15.75
2022-10-19T14:01:47.396Z,15.77
2022-10-19T14:06:53.243Z,15.81
2022-10-19T14:12:04.542Z,15.74
2022-10-19T14:17:21.633Z,15.70
2022-10-19T14:22:27.339Z,15.84
2022-10-19T14:27:30.621Z,15.73
2022-10-19T14:32:34.121Z,15.63
2022-10-19T14:37:36.916Z,15.77
2022-10-19T14:42:45.192Z,15.69
2022-10-19T14:47:54.025Z,15.68
2022-10-19T14:53:01.437Z,15.77
2022-10-19T14:58:09.513Z,15.74
2022-10-19T15:03:17.945Z,15.52
2022-10-19T15:08:30.597Z,15.57
2022-10-19T15:13:40.345Z,15.45
2022-10-19T15:18:49.489Z,15.38
2022-10-19T15:23:52.626Z,15.45
2022-10-19T15:29:06.731Z,15.13
2022-10-19T15:34:23.663Z,14.88
2022-10-19T15:39:38.759Z,15.14
2022-10-19T15:44:44.124Z,14.97
2022-10-19T15:49:45.595Z,15.06
2022-10-19T15:54:48.985Z,15.06
2022-10-19T15:59:50.940Z,14.89
2022-10-19T16:04:53.948Z,15.01
2022-10-19T16:09:55.542Z,14.95
2022-10-19T16:14:57.117Z,15.01
2022-10-19T16:19:59.015Z,14.93
2022-10-19T16:25:02.405Z,14.82
2022-10-19T16:30:04.824Z,14.90
2022-10-19T16:35:07.451Z,14.78
2022-10-19T16:40:09.298Z,14.72
2022-10-19T16:45:11.175Z,14.84
2022-10-19T16:50:12.663Z,14.85
2022-10-19T16:55:14.433Z,14.85
2022-10-19T17:00:16.003Z,14.87
2022-10-19T17:05:17.552Z,14.81
2022-10-19T17:10:19.129Z,14.89
2022-10-19T17:20:42.081Z,14.89
2022-10-19T17:25:48.218Z,14.91
2022-10-19T17:30:49.690Z,14.87
2022-10-19T17:35:51.266Z,14.86
2022-10-19T17:40:52.910Z,14.79
2022-10-19T17:46:02.023Z,14.83
2022-10-19T17:51:06.882Z,14.64
2022-10-19T17:56:08.620Z,14.59
2022-10-19T18:01:11.233Z,14.49
2022-10-19T18:06:14.898Z,14.63
2022-10-19T18:11:17.582Z,14.33
2022-10-19T18:16:22.659Z,14.32
2022-10-19T18:21:27.834Z,14.34
2022-10-19T18:26:32.467Z,14.25
2022-10-19T18:31:34.164Z,14.38
2022-10-19T18:36:35.730Z,14.06
2022-10-19T18:41:37.456Z,14.36
2022-10-19T18:46:40.359Z,14.17
2022-10-19T18:51:42.085Z,14.32
2022-10-19T18:56:43.527Z,14.33
2022-10-19T19:01:45.156Z,14.11
2022-10-19T19:06:46.855Z,14.26
2022-10-19T19:11:48.386Z,14.29
2022-10-19T19:16:50.276Z,14.24
2022-10-19T19:21:51.778Z,14.14
2022-10-19T19:26:54.098Z,14.08
2022-10-19T19:31:55.648Z,14.10
2022-10-19T19:36:57.373Z,14.13
2022-10-19T19:41:58.949Z,14.15
2022-10-19T19:47:01.804Z,14.15
2022-10-19T19:52:03.498Z,14.17
2022-10-19T19:57:04.965Z,13.91
2022-10-19T20:02:07.011Z,14.09
2022-10-19T20:07:08.633Z,14.15
2022-10-19T20:12:10.163Z,14.13
2022-10-19T20:17:11.608Z,14.02
2022-10-19T20:22:13.055Z,13.90
2022-10-19T20:27:14.517Z,13.78
2022-10-19T20:32:16.001Z,13.64
2022-10-19T20:37:17.885Z,13.60
2022-10-19T20:42:19.341Z,13.66
2022-10-19T20:47:20.894Z,13.63
2022-10-19T20:52:22.433Z,13.61
2022-10-19T20:57:23.953Z,13.61
2022-10-19T21:02:25.430Z,13.64
2022-10-19T21:07:27.007Z,13.59
2022-10-19T21:12:28.657Z,13.60
2022-10-19T21:22:34.568Z,13.63
2022-10-19T21:27:39.502Z,13.63
2022-10-19T21:32:40.965Z,13.61
2022-10-19T21:37:45.263Z,13.59
2022-10-19T21:42:46.787Z,13.57
2022-10-19T21:47:48.231Z,13.71
2022-10-19T21:52:49.814Z,13.74
2022-10-19T21:57:51.486Z,13.72
2022-10-19T22:02:52.914Z,13.77
2022-10-19T22:07:54.410Z,13.76
2022-10-19T22:12:56.579Z,13.84
2022-10-19T22:17:58.133Z,13.83
2022-10-19T22:22:59.533Z,13.85
2022-10-19T22:28:01.248Z,13.79
2022-10-19T22:33:02.825Z,13.78
2022-10-19T22:38:04.309Z,13.75
2022-10-19T22:43:06.808Z,13.75
2022-10-19T22:48:08.666Z,13.80
2022-10-19T22:53:11.121Z,13.76
2022-10-19T22:58:12.651Z,13.62
2022-10-19T23:03:14.333Z,13.66
2022-10-19T23:08:15.858Z,13.54
2022-10-19T23:13:17.438Z,13.53
2022-10-19T23:18:19.620Z,13.49
2022-10-19T23:23:21.395Z,13.43
2022-10-19T23:28:22.914Z,13.29
2022-10-19T23:33:25.826Z,13.29
2022-10-19T23:38:27.254Z,13.22
2022-10-19T23:43:29.384Z,13.30
2022-10-19T23:48:31.454Z,13.14
2022-10-19T23:53:38.504Z,13.07
2022-10-19T23:58:42.625Z,12.89
